createdAt,value
2018-11-02T05:35:10.653Z,1009.6
2018-11-02T05:36:22.672Z,1009.7
2018-11-02T05:37:34.722Z,1009.8
2018-11-02T05:38:46.994Z,1009.8
2018-11-02T05:39:59.199Z,1009.8
2018-11-02T05:41:11.305Z,1009.9
2018-11-02T05:42:23.507Z,1009.9
2018-11-02T05:43:35.704Z,1010
2018-11-02T05:44:47.997Z,1010
2018-11-02T05:46:00.181Z,1010
2018-11-02T05:47:12.390Z,1010.1
2018-11-02T05:48:24.580Z,1010
2018-11-02T05:49:36.677Z,1010.1
2018-11-02T05:50:48.962Z,1010.1
2018-11-02T05:53:13.331Z,1010.2
2018-11-02T05:54:25.535Z,1010.2
2018-11-02T05:55:37.741Z,1010.3
2018-11-02T05:56:49.843Z,1010.4
2018-11-02T05:58:02.045Z,1010.3
2018-11-02T05:59:16.279Z,1010.4
2018-11-02T06:00:26.520Z,1010.4
2018-11-02T06:01:38.727Z,1010.4
2018-11-02T06:02:50.902Z,1010.5
2018-11-02T06:05:15.294Z,1010.5
2018-11-02T06:06:27.398Z,1010.6
2018-11-02T06:07:39.674Z,1010.6
2018-11-02T06:08:51.793Z,1010.7
2018-11-02T06:10:03.991Z,1010.6
2018-11-02T06:11:16.264Z,1010.7
2018-11-02T06:12:28.399Z,1010.7
2018-11-02T06:13:40.671Z,1010.7
2018-11-02T06:14:54.089Z,1010.8
2018-11-02T06:17:17.246Z,1010.9
2018-11-02T06:18:32.450Z,1010.9
2018-11-02T06:19:41.652Z,1010.9
2018-11-02T06:20:53.923Z,1011
2018-11-02T06:22:05.963Z,1010.9
2018-11-02T06:23:18.152Z,1011
2018-11-02T06:24:30.421Z,1011
2018-11-02T06:25:42.522Z,1011
2018-11-02T06:29:19.132Z,1011.1
2018-11-02T06:30:31.417Z,1011
2018-11-02T06:31:43.596Z,1011
2018-11-02T06:32:55.787Z,1011.1
2018-11-02T06:34:07.897Z,1011.2
2018-11-02T06:35:20.090Z,1011.3
2018-11-02T06:36:32.286Z,1011.3
2018-11-02T06:37:44.586Z,1011.3
2018-11-02T06:38:56.677Z,1011.4
2018-11-02T06:40:08.969Z,1011.4
2018-11-02T06:41:21.152Z,1011.4
2018-11-02T06:42:33.328Z,1011.4
2018-11-02T06:43:45.552Z,1011.5
2018-11-02T06:44:57.661Z,1011.5
2018-11-02T06:46:09.935Z,1011.5
2018-11-02T06:47:22.118Z,1011.5
2018-11-02T06:48:34.339Z,1011.6
2018-11-02T06:49:46.519Z,1011.6
2018-11-02T06:50:58.738Z,1011.6
2018-11-02T06:52:10.951Z,1011.6
2018-11-02T06:53:23.033Z,1011.6
2018-11-02T06:54:35.306Z,1011.6
2018-11-02T06:55:47.493Z,1011.7
2018-11-02T06:57:01.288Z,1011.7
2018-11-02T06:58:11.797Z,1011.7
2018-11-02T06:59:24.086Z,1011.8
2018-11-02T07:00:36.297Z,1011.8
2018-11-02T07:01:48.533Z,1011.8
2018-11-02T07:03:00.585Z,1011.9
2018-11-02T07:05:25.080Z,1011.9
2018-11-02T07:06:37.250Z,1012
2018-11-02T07:07:50.359Z,1012
2018-11-02T07:09:01.558Z,1012
2018-11-02T07:10:13.830Z,1012.1
2018-11-02T07:11:25.952Z,1012.1
2018-11-02T07:12:38.232Z,1012.1
2018-11-02T07:13:50.392Z,1012.2
2018-11-02T07:17:27.031Z,1012.3
2018-11-02T07:18:39.122Z,1012.2
2018-11-02T07:19:51.329Z,1012.3
2018-11-02T07:21:03.510Z,1012.4
2018-11-02T07:22:15.791Z,1012.4
2018-11-02T07:23:27.892Z,1012.4
2018-11-02T07:24:40.088Z,1012.5
2018-11-02T07:25:52.390Z,1012.5
2018-11-02T07:27:04.571Z,1012.5
2018-11-02T07:28:16.778Z,1012.5
2018-11-02T07:29:28.957Z,1012.6
2018-11-02T07:30:41.180Z,1012.6
2018-11-02T07:31:53.396Z,1012.6
2018-11-02T07:33:05.485Z,1012.6
2018-11-02T07:34:17.755Z,1012.6
2018-11-02T07:35:29.867Z,1012.7
2018-11-02T07:36:42.129Z,1012.6
2018-11-02T07:37:54.317Z,1012.7
2018-11-02T07:39:06.439Z,1012.7
2018-11-02T07:41:30.939Z,1012.7
2018-11-02T07:42:43.054Z,1012.8
2018-11-02T07:43:55.320Z,1012.8
2018-11-02T07:45:07.491Z,1012.8
2018-11-02T07:46:19.624Z,1012.9
2018-11-02T07:47:31.897Z,1012.9
2018-11-02T07:48:43.995Z,1012.9
2018-11-02T07:49:56.291Z,1012.9
2018-11-02T07:51:08.385Z,1012.9
2018-11-02T07:53:32.877Z,1013
2018-11-02T07:54:45.059Z,1013
2018-11-02T07:55:57.263Z,1013
2018-11-02T07:57:09.462Z,1013
2018-11-02T07:58:21.571Z,1013
2018-11-02T07:59:33.785Z,1013.2
2018-11-02T08:00:46.031Z,1013.1
2018-11-02T08:01:58.235Z,1013.2
2018-11-02T08:05:34.808Z,1013.3
2018-11-02T08:06:46.922Z,1013.3
2018-11-02T08:07:59.133Z,1013.2
2018-11-02T08:09:11.454Z,1013.2
2018-11-02T08:10:23.584Z,1013.2
2018-11-02T08:11:35.701Z,1013.2
2018-11-02T08:12:47.985Z,1013.2
2018-11-02T08:14:00.215Z,1013.3
2018-11-02T08:15:12.390Z,1013.3
2018-11-02T08:16:24.565Z,1013.2
2018-11-02T08:17:36.694Z,1013.3
2018-11-02T08:18:49.019Z,1013.3
2018-11-02T08:20:01.074Z,1013.3
2018-11-02T08:21:13.438Z,1013.4
2018-11-02T08:22:25.556Z,1013.4
2018-11-02T08:23:37.745Z,1013.4
2018-11-02T08:24:49.858Z,1013.4
2018-11-02T08:26:02.045Z,1013.5
2018-11-02T08:27:14.325Z,1013.5
2018-11-02T08:29:38.692Z,1013.5
2018-11-02T08:30:50.843Z,1013.5
2018-11-02T08:32:03.116Z,1013.5
2018-11-02T08:33:15.237Z,1013.5
2018-11-02T08:34:27.494Z,1013.5
2018-11-02T08:35:39.688Z,1013.6
2018-11-02T08:36:51.917Z,1013.6
2018-11-02T08:38:04.003Z,1013.5
2018-11-02T08:39:16.194Z,1013.6
2018-11-02T08:41:40.669Z,1013.6
2018-11-02T08:42:52.794Z,1013.6
2018-11-02T08:44:05.066Z,1013.6
2018-11-02T08:45:17.282Z,1013.7
2018-11-02T08:46:29.463Z,1013.7
2018-11-02T08:47:41.578Z,1013.7
2018-11-02T08:48:53.769Z,1013.7
2018-11-02T08:50:05.966Z,1013.7
2018-11-02T08:51:18.259Z,1013.8
2018-11-02T08:53:42.614Z,1013.8
2018-11-02T08:54:54.733Z,1013.8
2018-11-02T08:56:07.014Z,1013.9
2018-11-02T08:57:19.234Z,1013.9
2018-11-02T08:58:31.406Z,1014
2018-11-02T08:59:43.671Z,1013.9
2018-11-02T09:00:56.324Z,1013.9
2018-11-02T09:02:07.997Z,1014
2018-11-02T09:03:20.203Z,1014.1
2018-11-02T09:05:44.597Z,1014.1
2018-11-02T09:06:56.781Z,1014.1
2018-11-02T09:08:08.989Z,1014.2
2018-11-02T09:09:21.111Z,1014.1
2018-11-02T09:10:33.280Z,1014.1
2018-11-02T09:11:45.567Z,1014.2
2018-11-02T09:12:57.737Z,1014.3
2018-11-02T09:14:09.858Z,1014.2
2018-11-02T09:15:22.077Z,1014.1
2018-11-02T09:17:46.536Z,1014.1
2018-11-02T09:18:58.643Z,1014.2
2018-11-02T09:20:10.915Z,1014.2
2018-11-02T09:21:23.043Z,1014.2
2018-11-02T09:22:35.251Z,1014.2
2018-11-02T09:23:47.441Z,1014.2
2018-11-02T09:24:59.654Z,1014.2
2018-11-02T09:26:11.890Z,1014.2
2018-11-02T09:27:24.102Z,1014.3
2018-11-02T09:28:36.379Z,1014.3
2018-11-02T09:29:48.484Z,1014.4
2018-11-02T09:31:00.678Z,1014.4
2018-11-02T09:32:13.043Z,1014.4
2018-11-02T09:33:25.080Z,1014.4
2018-11-02T09:34:37.261Z,1014.5
2018-11-02T09:35:49.384Z,1014.6
2018-11-02T09:37:01.671Z,1014.5
2018-11-02T09:38:13.767Z,1014.4
2018-11-02T09:39:26.057Z,1014.4
2018-11-02T09:41:50.436Z,1014.4
2018-11-02T09:43:02.677Z,1014.5
2018-11-02T09:44:14.816Z,1014.6
2018-11-02T09:45:26.938Z,1014.6
2018-11-02T09:46:39.146Z,1014.7
2018-11-02T09:47:51.431Z,1014.7
2018-11-02T09:49:03.607Z,1014.7
2018-11-02T09:50:15.813Z,1014.7
2018-11-02T09:51:28.046Z,1014.8
2018-11-02T09:53:52.381Z,1014.8
2018-11-02T09:55:04.575Z,1014.9
2018-11-02T09:56:16.758Z,1014.8
2018-11-02T09:57:28.990Z,1014.8
2018-11-02T09:58:41.067Z,1014.8
2018-11-02T09:59:53.348Z,1014.9
2018-11-02T10:01:05.538Z,1014.9
2018-11-02T10:02:17.775Z,1015
2018-11-02T10:03:29.959Z,1015
2018-11-02T10:04:42.081Z,1015.1
2018-11-02T10:05:54.363Z,1015.1
2018-11-02T10:07:06.450Z,1015.1
2018-11-02T10:08:18.721Z,1015.1
2018-11-02T10:09:30.851Z,1015.1
2018-11-02T10:10:43.053Z,1015.2
2018-11-02T10:11:55.243Z,1015.2
2018-11-02T10:13:07.603Z,1015.1
2018-11-02T10:14:19.640Z,1015.1
2018-11-02T10:15:31.911Z,1015.3
2018-11-02T10:17:56.312Z,1015.3
2018-11-02T10:19:08.493Z,1015.1
2018-11-02T10:20:20.699Z,1015.3
2018-11-02T10:21:32.870Z,1015.3
2018-11-02T10:22:44.986Z,1015.3
2018-11-02T10:23:57.277Z,1015.2
2018-11-02T10:25:09.387Z,1015.3
2018-11-02T10:26:21.594Z,1015.2
2018-11-02T10:27:33.871Z,1015.3
2018-11-02T10:29:58.232Z,1015.3
2018-11-02T10:31:10.442Z,1015.2
2018-11-02T10:32:22.717Z,1015.2
2018-11-02T10:33:34.886Z,1015.3
2018-11-02T10:34:47.058Z,1015.2
2018-11-02T10:35:59.225Z,1015.4
2018-11-02T10:37:11.333Z,1015.3
2018-11-02T10:38:24.239Z,1015.4
2018-11-02T10:39:35.804Z,1015.4
2018-11-02T10:42:00.208Z,1015.5
2018-11-02T10:43:12.416Z,1015.4
2018-11-02T10:44:24.521Z,1015.4
2018-11-02T10:45:36.754Z,1015.4
2018-11-02T10:46:48.909Z,1015.4
2018-11-02T10:48:01.334Z,1015.5
2018-11-02T10:49:16.073Z,1015.6
2018-11-02T10:50:25.687Z,1015.6
2018-11-02T10:51:37.783Z,1015.6
2018-11-02T10:54:02.094Z,1015.7
2018-11-02T10:55:14.379Z,1015.7
2018-11-02T10:56:26.553Z,1015.8
2018-11-02T10:57:38.808Z,1015.8
2018-11-02T10:58:50.924Z,1015.8
2018-11-02T11:00:03.134Z,1015.8
2018-11-02T11:01:15.236Z,1015.7
2018-11-02T11:02:27.542Z,1016
2018-11-02T11:03:39.711Z,1015.9
2018-11-02T11:06:04.125Z,1016
2018-11-02T11:07:16.212Z,1016.1
2018-11-02T11:08:28.518Z,1016.1
2018-11-02T11:09:40.614Z,1016
2018-11-02T11:10:52.833Z,1016
2018-11-02T11:12:05.117Z,1015.9
2018-11-02T11:13:17.274Z,1015.9
2018-11-02T11:14:29.468Z,1016
2018-11-02T11:15:41.672Z,1015.8
2018-11-02T11:18:05.973Z,1015.9
2018-11-02T11:19:18.270Z,1015.9
2018-11-02T11:20:30.444Z,1016
2018-11-02T11:21:42.577Z,1016
2018-11-02T11:22:54.890Z,1016
2018-11-02T11:24:07.817Z,1016
2018-11-02T11:25:19.240Z,1015.9
2018-11-02T11:26:31.350Z,1016
2018-11-02T11:27:46.459Z,1016.1
2018-11-02T11:30:08.037Z,1016.1
2018-11-02T11:31:20.272Z,1016.1
2018-11-02T11:32:32.529Z,1016.2
2018-11-02T11:33:44.618Z,1016.2
2018-11-02T11:34:56.711Z,1016.2
2018-11-02T11:36:09.008Z,1016.2
2018-11-02T11:37:21.109Z,1016.2
2018-11-02T11:38:33.392Z,1016.1
2018-11-02T11:39:45.877Z,1016.1
2018-11-02T11:42:09.982Z,1016.1
2018-11-02T11:43:22.084Z,1016.2
2018-11-02T11:44:34.380Z,1016.3
2018-11-02T11:45:46.568Z,1016.3
2018-11-02T11:46:58.753Z,1016.3
2018-11-02T11:48:10.896Z,1016.3
2018-11-02T11:49:23.144Z,1016.3
2018-11-02T11:50:35.353Z,1016.3
2018-11-02T11:51:47.556Z,1016.3
2018-11-02T11:52:59.687Z,1016.3
2018-11-02T11:54:11.938Z,1016.3
2018-11-02T11:55:24.076Z,1016.3
2018-11-02T11:56:37.187Z,1016.3
2018-11-02T11:57:48.522Z,1016.3
2018-11-02T11:59:00.735Z,1016.3
2018-11-02T12:00:12.849Z,1016.3
2018-11-02T12:01:25.048Z,1016.3
2018-11-02T12:02:37.298Z,1016.3
2018-11-02T12:03:49.492Z,1016.3
2018-11-02T12:06:13.887Z,1016.3
2018-11-02T12:07:26.097Z,1016.2
2018-11-02T12:08:38.193Z,1016.2
2018-11-02T12:09:50.478Z,1016.3
2018-11-02T12:11:02.702Z,1016.3
2018-11-02T12:12:14.893Z,1016.3
2018-11-02T12:13:27.096Z,1016.3
2018-11-02T12:14:39.312Z,1016.3
2018-11-02T12:15:51.446Z,1016.4
2018-11-02T12:18:15.856Z,1016.4
2018-11-02T12:19:28.054Z,1016.5
2018-11-02T12:20:40.227Z,1016.5
2018-11-02T12:21:52.433Z,1016.4
2018-11-02T12:23:04.625Z,1016.5
2018-11-02T12:24:16.815Z,1016.5
2018-11-02T12:25:29.021Z,1016.6
2018-11-02T12:26:41.246Z,1016.6
2018-11-02T12:27:53.400Z,1016.6
2018-11-02T12:30:17.709Z,1016.7
2018-11-02T12:31:29.920Z,1016.7
2018-11-02T12:32:42.119Z,1016.8
2018-11-02T12:33:54.414Z,1016.7
2018-11-02T12:35:06.618Z,1016.7
2018-11-02T12:36:18.715Z,1016.6
2018-11-02T12:37:30.894Z,1016.7
2018-11-02T12:38:43.178Z,1016.6
2018-11-02T12:39:55.286Z,1016.6
2018-11-02T12:42:19.772Z,1016.7
2018-11-02T12:43:31.976Z,1016.6
2018-11-02T12:44:44.151Z,1016.7
2018-11-02T12:45:56.277Z,1016.6
2018-11-02T12:47:08.458Z,1016.6
2018-11-02T12:48:20.655Z,1016.6
2018-11-02T12:49:32.935Z,1016.6
2018-11-02T12:50:45.136Z,1016.6
2018-11-02T12:51:57.242Z,1016.6
2018-11-02T12:53:09.458Z,1016.6
2018-11-02T12:54:21.726Z,1016.6
2018-11-02T12:55:33.860Z,1016.6
2018-11-02T12:56:46.136Z,1016.6
2018-11-02T12:57:58.293Z,1016.6
2018-11-02T12:59:10.486Z,1016.6
2018-11-02T13:00:22.731Z,1016.5
2018-11-02T13:01:34.803Z,1016.6
2018-11-02T13:02:46.996Z,1016.6
2018-11-02T13:03:59.342Z,1016.6
2018-11-02T13:06:23.618Z,1016.6
2018-11-02T13:07:35.795Z,1016.6
2018-11-02T13:08:47.972Z,1016.6
2018-11-02T13:10:00.273Z,1016.6
2018-11-02T13:11:12.474Z,1016.7
2018-11-02T13:12:24.590Z,1016.7
2018-11-02T13:13:36.860Z,1016.7
2018-11-02T13:14:48.974Z,1016.7
2018-11-02T13:16:01.144Z,1016.7
2018-11-02T13:18:25.548Z,1016.7
2018-11-02T13:19:38.349Z,1016.7
2018-11-02T13:20:50.047Z,1016.8
2018-11-02T13:22:02.149Z,1016.8
2018-11-02T13:23:14.400Z,1016.6
2018-11-02T13:24:26.640Z,1016.7
2018-11-02T13:25:38.708Z,1016.8
2018-11-02T13:26:50.980Z,1016.8
2018-11-02T13:28:03.199Z,1016.9
2018-11-02T13:29:15.528Z,1016.9
2018-11-02T13:30:27.508Z,1016.9
2018-11-02T13:31:39.756Z,1016.9
2018-11-02T13:32:51.899Z,1016.9
2018-11-02T13:34:04.166Z,1016.9
2018-11-02T13:35:16.360Z,1016.9
2018-11-02T13:36:28.661Z,1016.9
2018-11-02T13:37:40.750Z,1017
2018-11-02T13:38:52.960Z,1017
2018-11-02T13:40:05.056Z,1017
2018-11-02T13:41:17.246Z,1017
2018-11-02T13:42:29.524Z,1017
2018-11-02T13:43:41.655Z,1017
2018-11-02T13:44:53.909Z,1017
2018-11-02T13:46:06.030Z,1017
2018-11-02T13:47:18.375Z,1017
2018-11-02T13:48:30.538Z,1017
2018-11-02T13:49:42.628Z,1017
2018-11-02T13:50:54.892Z,1017.1
2018-11-02T13:52:09.163Z,1017.1
2018-11-02T13:53:19.292Z,1017.1
2018-11-02T13:54:31.478Z,1017.1
2018-11-02T13:55:43.799Z,1017.1
2018-11-02T13:56:55.831Z,1017.1
2018-11-02T13:58:08.099Z,1017.2
2018-11-02T13:59:20.177Z,1017.2
2018-11-02T14:00:32.471Z,1017.2
2018-11-02T14:01:44.618Z,1017.2
2018-11-02T14:02:56.875Z,1017.3
2018-11-02T14:04:09.042Z,1017.3
2018-11-02T14:06:33.432Z,1017.3
2018-11-02T14:07:45.656Z,1017.3
2018-11-02T14:08:57.852Z,1017.4
2018-11-02T14:10:10.024Z,1017.4
2018-11-02T14:11:22.208Z,1017.5
2018-11-02T14:12:34.384Z,1017.5
2018-11-02T14:13:46.554Z,1017.5
2018-11-02T14:14:58.814Z,1017.5
2018-11-02T14:16:11.024Z,1017.6
2018-11-02T14:18:35.388Z,1017.6
2018-11-02T14:19:47.608Z,1017.6
2018-11-02T14:20:59.725Z,1017.6
2018-11-02T14:22:15.289Z,1017.7
2018-11-02T14:23:24.112Z,1017.7
2018-11-02T14:24:36.305Z,1017.7
2018-11-02T14:25:48.570Z,1017.7
2018-11-02T14:27:00.841Z,1017.7
2018-11-02T14:28:12.953Z,1017.7
2018-11-02T14:29:25.149Z,1017.7
2018-11-02T14:30:37.394Z,1017.7
2018-11-02T14:31:49.596Z,1017.7
2018-11-02T14:33:01.764Z,1017.8
2018-11-02T14:34:13.934Z,1017.8
2018-11-02T14:35:26.143Z,1017.9
2018-11-02T14:36:38.346Z,1017.9
2018-11-02T14:37:50.525Z,1017.9
2018-11-02T14:39:02.741Z,1017.9
2018-11-02T14:40:15.029Z,1018
2018-11-02T14:42:39.305Z,1018
2018-11-02T14:43:51.414Z,1018
2018-11-02T14:45:03.607Z,1018
2018-11-02T14:46:15.883Z,1018
2018-11-02T14:47:28.117Z,1018
2018-11-02T14:48:40.297Z,1018.1
2018-11-02T14:49:52.505Z,1018.1
2018-11-02T14:51:04.592Z,1018.1
2018-11-02T14:52:16.883Z,1018.1
2018-11-02T14:54:41.307Z,1018.2
2018-11-02T14:55:53.371Z,1018.2
2018-11-02T14:57:05.561Z,1018.3
2018-11-02T14:58:17.937Z,1018.3
2018-11-02T14:59:29.968Z,1018.3
2018-11-02T15:00:42.260Z,1018.3
2018-11-02T15:03:06.586Z,1018.3
2018-11-02T15:04:18.828Z,1018.4
2018-11-02T15:05:30.959Z,1018.4
2018-11-02T15:06:43.206Z,1018.4
2018-11-02T15:07:56.449Z,1018.4
2018-11-02T15:09:07.559Z,1018.4
2018-11-02T15:10:19.797Z,1018.4
2018-11-02T15:11:32.022Z,1018.5
2018-11-02T15:12:44.100Z,1018.5
2018-11-02T15:13:56.325Z,1018.5
2018-11-02T15:15:08.485Z,1018.5
2018-11-02T15:16:20.770Z,1018.5
2018-11-02T15:18:45.071Z,1018.5
2018-11-02T15:19:57.360Z,1018.6
2018-11-02T15:21:09.533Z,1018.6
2018-11-02T15:22:21.724Z,1018.6
2018-11-02T15:23:33.836Z,1018.6
2018-11-02T15:24:46.065Z,1018.7
2018-11-02T15:25:58.336Z,1018.7
2018-11-02T15:27:10.502Z,1018.7
2018-11-02T15:28:22.689Z,1018.6
2018-11-02T15:30:47.095Z,1018.6
2018-11-02T15:31:59.278Z,1018.7
2018-11-02T15:33:11.388Z,1018.6
2018-11-02T15:34:23.664Z,1018.6
2018-11-02T15:35:35.884Z,1018.6
2018-11-02T15:36:48.046Z,1018.7
2018-11-02T15:38:00.162Z,1018.7
2018-11-02T15:39:12.445Z,1018.7
2018-11-02T15:40:24.627Z,1018.6
2018-11-02T15:42:49.111Z,1018.7
2018-11-02T15:44:01.153Z,1018.7
2018-11-02T15:45:13.417Z,1018.7
2018-11-02T15:46:25.608Z,1018.6
2018-11-02T15:47:37.793Z,1018.6
2018-11-02T15:48:49.919Z,1018.6
2018-11-02T15:50:02.194Z,1018.6
2018-11-02T15:51:14.328Z,1018.6
2018-11-02T15:52:26.489Z,1018.6
2018-11-02T15:54:50.958Z,1018.7
2018-11-02T15:56:03.172Z,1018.7
2018-11-02T15:57:15.371Z,1018.7
2018-11-02T15:58:27.475Z,1018.7
2018-11-02T15:59:39.728Z,1018.7
2018-11-02T16:00:52.016Z,1018.7
2018-11-02T16:02:04.122Z,1018.8
2018-11-02T16:03:16.229Z,1018.7
2018-11-02T16:04:28.495Z,1018.8
2018-11-02T16:06:52.896Z,1018.8
2018-11-02T16:08:05.087Z,1018.8
2018-11-02T16:09:17.218Z,1018.9
2018-11-02T16:10:29.526Z,1018.9
2018-11-02T16:11:41.759Z,1018.9
2018-11-02T16:12:53.890Z,1018.8
2018-11-02T16:14:05.968Z,1018.9
2018-11-02T16:15:18.171Z,1018.8
2018-11-02T16:16:30.390Z,1018.8
2018-11-02T16:18:54.779Z,1018.8
2018-11-02T16:20:07.119Z,1018.8
2018-11-02T16:21:19.163Z,1019
2018-11-02T16:22:31.431Z,1018.9
2018-11-02T16:23:43.593Z,1018.9
2018-11-02T16:24:55.715Z,1018.8
2018-11-02T16:26:07.997Z,1018.9
2018-11-02T16:27:20.109Z,1018.9
